Time;durP1;ratioP1;P1;durP2;ratioP2;P2;SDS_P1;SDS_P2;PMS_P1;PMS_P2;Temp;Humidity;BMP_temperature;BMP_pressure;BME280_temperature;BME280_humidity;BME280_pressure;Samples;Min_cycle;Max_cycle;Signal;HPM_P1;HPM_P2
2022/01/29 00:00:54;;;;;;;11.32;7.20;;;;;;;;;;5056488;28;20132;-68
2022/01/29 00:03:47;;;;;;;14.98;7.78;;;;;;;;;;5056305;28;20037;-68
2022/01/29 00:06:14;;;;;;;13.25;7.50;;;;;;;;;;5056264;28;20045;-68
2022/01/29 00:08:43;;;;;;;12.85;8.05;;;;;;;;;;5055345;28;20037;-68
2022/01/29 00:11:27;;;;;;;14.00;8.20;;;;;;;;;;5055963;28;20081;-69
2022/01/29 00:13:55;;;;;;;14.20;8.68;;;;;;;;;;5054649;28;20144;-68
2022/01/29 00:16:47;;;;;;;17.27;8.70;;;;;;;;;;5056110;28;20045;-68
2022/01/29 00:19:16;;;;;;;13.55;8.30;;;;;;;;;;5055634;28;20128;-68
2022/01/29 00:21:47;;;;;;;14.13;7.75;;;;;;;;;;5055911;28;20487;-68
2022/01/29 00:24:17;;;;;;;14.88;8.48;;;;;;;;;;5055603;28;20518;-68
2022/01/29 00:26:46;;;;;;;14.93;8.02;;;;;;;;;;5055781;28;20040;-68
2022/01/29 00:29:22;;;;;;;16.17;8.35;;;;;;;;;;5055903;28;20068;-68
2022/01/29 00:32:15;;;;;;;15.82;9.02;;;;;;;;;;5055529;28;20136;-68
2022/01/29 00:35:13;;;;;;;15.25;8.38;;;;;;;;;;5055560;28;20044;-68
2022/01/29 00:37:41;;;;;;;13.30;7.90;;;;;;;;;;5054250;28;20131;-68
2022/01/29 00:40:25;;;;;;;15.13;7.82;;;;;;;;;;5053400;28;20049;-68
2022/01/29 00:42:53;;;;;;;17.20;8.68;;;;;;;;;;5055233;28;20377;-68
2022/01/29 00:45:29;;;;;;;22.33;8.80;;;;;;;;;;5055519;28;20048;-69
2022/01/29 00:48:02;;;;;;;16.02;8.63;;;;;;;;;;5055161;28;20051;-68
2022/01/29 00:50:37;;;;;;;14.30;8.32;;;;;;;;;;5054949;28;20488;-68
2022/01/29 00:53:04;;;;;;;16.23;8.27;;;;;;;;;;5055257;28;20047;-68
2022/01/29 00:55:34;;;;;;;15.38;9.20;;;;;;;;;;5053484;28;20472;-68
2022/01/29 00:58:06;;;;;;;15.80;8.00;;;;;;;;;;5055273;28;20129;-68
2022/01/29 01:00:36;;;;;;;16.40;8.70;;;;;;;;;;5053710;28;20055;-68
2022/01/29 01:03:06;;;;;;;19.13;8.73;;;;;;;;;;5055078;28;20391;-68
2022/01/29 01:05:36;;;;;;;13.88;7.80;;;;;;;;;;5054796;28;20079;-68
2022/01/29 01:08:04;;;;;;;16.35;7.93;;;;;;;;;;5055020;28;20036;-68
2022/01/29 01:10:33;;;;;;;13.45;8.10;;;;;;;;;;5053188;28;20049;-68
2022/01/29 01:13:10;;;;;;;15.38;8.30;;;;;;;;;;5054397;28;20045;-68
2022/01/29 01:15:38;;;;;;;17.77;8.40;;;;;;;;;;5054952;28;20045;-68
2022/01/29 01:18:06;;;;;;;13.65;7.50;;;;;;;;;;5054575;28;20048;-68
2022/01/29 01:20:51;;;;;;;14.88;8.35;;;;;;;;;;5052789;28;20437;-68
2022/01/29 01:23:19;;;;;;;16.52;8.23;;;;;;;;;;5055175;28;20361;-68
2022/01/29 01:26:11;;;;;;;17.60;8.48;;;;;;;;;;5054218;28;20418;-68
2022/01/29 01:28:43;;;;;;;14.10;7.78;;;;;;;;;;5054271;28;20077;-68
2022/01/29 01:31:14;;;;;;;13.43;7.82;;;;;;;;;;5054215;28;20083;-68
2022/01/29 01:33:43;;;;;;;13.85;8.15;;;;;;;;;;5053223;28;20127;-68
2022/01/29 01:36:54;;;;;;;16.80;8.40;;;;;;;;;;5054010;28;20051;-68
2022/01/29 01:39:27;;;;;;;15.55;8.60;;;;;;;;;;5054351;28;20061;-68
2022/01/29 01:42:05;;;;;;;13.70;7.93;;;;;;;;;;5053570;28;20052;-68
2022/01/29 01:44:46;;;;;;;14.40;7.97;;;;;;;;;;5054010;28;20083;-68
2022/01/29 01:47:22;;;;;;;19.42;9.38;;;;;;;;;;5054568;28;20043;-68
2022/01/29 01:49:49;;;;;;;15.18;8.02;;;;;;;;;;5053363;28;20128;-68
2022/01/29 01:52:18;;;;;;;16.17;8.02;;;;;;;;;;5053003;28;20048;-68
2022/01/29 01:54:46;;;;;;;16.75;8.38;;;;;;;;;;5054174;28;20048;-68
2022/01/29 01:57:14;;;;;;;16.00;7.90;;;;;;;;;;5053532;28;20067;-68
2022/01/29 01:59:46;;;;;;;11.70;7.72;;;;;;;;;;5052729;28;20444;-68
2022/01/29 02:02:14;;;;;;;13.45;8.60;;;;;;;;;;5054200;28;20127;-68
2022/01/29 02:04:46;;;;;;;15.82;8.52;;;;;;;;;;5054086;28;20411;-68
2022/01/29 02:07:24;;;;;;;15.68;8.25;;;;;;;;;;5053521;28;20047;-68
2022/01/29 02:09:53;;;;;;;14.32;8.20;;;;;;;;;;5052498;28;20518;-68
2022/01/29 02:12:44;;;;;;;16.65;7.95;;;;;;;;;;5052542;28;20041;-68
2022/01/29 02:15:12;;;;;;;14.93;8.30;;;;;;;;;;5052797;28;20398;-68
2022/01/29 02:17:42;;;;;;;14.48;7.97;;;;;;;;;;5052320;28;20090;-68
2022/01/29 02:20:09;;;;;;;14.75;8.45;;;;;;;;;;5052035;28;20415;-68
2022/01/29 02:22:45;;;;;;;18.38;8.32;;;;;;;;;;5052223;28;20049;-68
2022/01/29 02:25:32;;;;;;;12.48;7.70;;;;;;;;;;5052974;28;20041;-68
2022/01/29 02:28:08;;;;;;;14.38;7.35;;;;;;;;;;5053383;28;20143;-68
2022/01/29 02:30:38;;;;;;;14.98;7.82;;;;;;;;;;5053239;28;20135;-68
2022/01/29 02:33:11;;;;;;;14.65;7.55;;;;;;;;;;5052066;28;20426;-68
2022/01/29 02:35:42;;;;;;;14.73;7.80;;;;;;;;;;5053361;28;20474;-68
2022/01/29 02:38:10;;;;;;;13.63;7.10;;;;;;;;;;5053252;28;20040;-68
2022/01/29 02:40:52;;;;;;;13.85;7.32;;;;;;;;;;5053248;28;20103;-68
2022/01/29 02:43:28;;;;;;;14.70;8.23;;;;;;;;;;5051791;28;20080;-68
2022/01/29 02:46:04;;;;;;;12.65;7.43;;;;;;;;;;5053144;28;20072;-68
2022/01/29 02:48:33;;;;;;;14.73;7.75;;;;;;;;;;5051817;28;20068;-68
2022/01/29 02:51:03;;;;;;;15.55;8.02;;;;;;;;;;5051857;28;20037;-68
2022/01/29 02:53:31;;;;;;;16.92;8.48;;;;;;;;;;5051450;28;20095;-68
2022/01/29 02:56:00;;;;;;;13.85;7.45;;;;;;;;;;5053550;28;20055;-68
2022/01/29 02:58:30;;;;;;;15.02;7.70;;;;;;;;;;5052860;28;20049;-68
2022/01/29 03:00:59;;;;;;;14.88;7.75;;;;;;;;;;5052880;28;20072;-68
2022/01/29 03:03:29;;;;;;;14.02;7.47;;;;;;;;;;5053407;28;20074;-68
2022/01/29 03:06:02;;;;;;;13.43;7.63;;;;;;;;;;5055439;28;20055;-68
2022/01/29 03:08:33;;;;;;;14.40;7.40;;;;;;;;;;5056998;28;20048;-68
2022/01/29 03:11:00;;;;;;;13.40;7.43;;;;;;;;;;5057363;28;20040;-68
2022/01/29 03:13:29;;;;;;;12.55;7.15;;;;;;;;;;5056832;28;20489;-68
2022/01/29 03:15:58;;;;;;;17.40;8.55;;;;;;;;;;5057067;28;20037;-68
2022/01/29 03:18:51;;;;;;;13.50;7.72;;;;;;;;;;5055815;28;20045;-68
2022/01/29 03:21:55;;;;;;;14.20;7.97;;;;;;;;;;5056703;28;20041;-68
2022/01/29 03:24:27;;;;;;;15.52;7.57;;;;;;;;;;5056890;28;20064;-68
2022/01/29 03:27:02;;;;;;;14.63;8.25;;;;;;;;;;5056370;28;20518;-68
2022/01/29 03:29:55;;;;;;;12.88;7.28;;;;;;;;;;5056459;28;20041;-68
2022/01/29 03:32:24;;;;;;;17.42;8.07;;;;;;;;;;5056660;28;20124;-68
2022/01/29 03:34:54;;;;;;;11.55;7.53;;;;;;;;;;5055519;28;20083;-68
2022/01/29 03:37:26;;;;;;;16.05;8.15;;;;;;;;;;5056621;28;20048;-68
2022/01/29 03:40:08;;;;;;;13.00;7.78;;;;;;;;;;5056483;28;20044;-68
2022/01/29 03:42:46;;;;;;;17.58;7.80;;;;;;;;;;5055355;28;20041;-68
2022/01/29 03:45:19;;;;;;;12.32;7.07;;;;;;;;;;5056310;28;20396;-68
2022/01/29 03:48:11;;;;;;;14.63;7.88;;;;;;;;;;5056078;28;20120;-68
2022/01/29 03:50:44;;;;;;;13.43;8.15;;;;;;;;;;5056282;28;20514;-68
2022/01/29 03:53:12;;;;;;;13.05;7.72;;;;;;;;;;5056469;28;20047;-68
2022/01/29 03:55:40;;;;;;;14.48;8.27;;;;;;;;;;5056266;28;20033;-68
2022/01/29 03:58:16;;;;;;;14.20;7.63;;;;;;;;;;5056047;28;20052;-68
2022/01/29 04:00:44;;;;;;;14.15;8.38;;;;;;;;;;5056127;28;20043;-68
2022/01/29 04:03:14;;;;;;;12.48;7.85;;;;;;;;;;5054666;28;20041;-68
2022/01/29 04:05:48;;;;;;;15.73;7.95;;;;;;;;;;5056049;28;20037;-68
2022/01/29 04:08:17;;;;;;;13.18;8.00;;;;;;;;;;5055985;28;20045;-68
2022/01/29 04:10:47;;;;;;;13.10;7.63;;;;;;;;;;5055729;28;20041;-68
2022/01/29 04:13:26;;;;;;;16.08;7.93;;;;;;;;;;5054727;28;20049;-68
2022/01/29 04:15:54;;;;;;;12.38;7.93;;;;;;;;;;5055368;28;20069;-68
2022/01/29 04:18:46;;;;;;;12.43;7.70;;;;;;;;;;5055853;28;20040;-68
2022/01/29 04:24:33;;;;;;;12.35;7.55;;;;;;;;;;5055845;28;20491;-68
2022/01/29 04:27:13;;;;;;;13.63;8.07;;;;;;;;;;5055398;28;20498;-68
2022/01/29 04:29:54;;;;;;;11.80;7.50;;;;;;;;;;5054228;28;20055;-68
2022/01/29 04:32:56;;;;;;;11.63;7.50;;;;;;;;;;5055807;28;20052;-68
2022/01/29 04:35:28;;;;;;;15.23;7.78;;;;;;;;;;5055138;28;20048;-68
2022/01/29 04:37:58;;;;;;;13.85;7.57;;;;;;;;;;5055491;28;20456;-68
2022/01/29 04:40:31;;;;;;;12.32;7.57;;;;;;;;;;5055617;28;20033;-68
2022/01/29 04:42:58;;;;;;;12.75;7.43;;;;;;;;;;5053977;28;20132;-68
2022/01/29 04:45:31;;;;;;;12.70;7.50;;;;;;;;;;5055500;28;20491;-68
2022/01/29 04:48:03;;;;;;;11.70;6.70;;;;;;;;;;5053942;28;20045;-68
2022/01/29 04:50:30;;;;;;;10.80;7.63;;;;;;;;;;5054770;28;20063;-68
2022/01/29 04:53:05;;;;;;;14.50;8.15;;;;;;;;;;5055382;28;20048;-65
2022/01/29 04:55:37;;;;;;;11.65;7.65;;;;;;;;;;5035025;28;20045;-65
2022/01/29 04:58:06;;;;;;;11.20;7.32;;;;;;;;;;5034704;28;20088;-66
2022/01/29 05:00:35;;;;;;;12.70;7.85;;;;;;;;;;5033877;28;20049;-65
2022/01/29 05:03:11;;;;;;;12.05;7.32;;;;;;;;;;5035123;28;20050;-65
2022/01/29 05:05:43;;;;;;;11.85;7.40;;;;;;;;;;5034949;28;20059;-65
2022/01/29 05:08:14;;;;;;;13.98;7.30;;;;;;;;;;5034903;28;20045;-65
2022/01/29 05:10:42;;;;;;;12.57;7.57;;;;;;;;;;5033185;28;20140;-65
2022/01/29 05:13:14;;;;;;;11.80;7.75;;;;;;;;;;5033437;28;20044;-65
2022/01/29 05:26:51;;;;;;;12.68;7.05;;;;;;;;;;5032167;28;20055;-65
2022/01/29 05:29:26;;;;;;;13.13;7.78;;;;;;;;;;5033565;28;20095;-66
2022/01/29 05:31:54;;;;;;;15.23;7.47;;;;;;;;;;5045570;28;20045;-66
2022/01/29 05:34:22;;;;;;;11.70;7.28;;;;;;;;;;5053916;28;20393;-66
2022/01/29 05:37:03;;;;;;;11.57;7.40;;;;;;;;;;5052911;28;20071;-66
2022/01/29 05:39:31;;;;;;;13.98;7.45;;;;;;;;;;5052793;28;20574;-67
2022/01/29 05:42:00;;;;;;;10.27;7.57;;;;;;;;;;5054234;28;20051;-73
2022/01/29 05:44:31;;;;;;;14.40;7.97;;;;;;;;;;5054425;28;20049;-74
2022/01/29 05:47:13;;;;;;;13.40;7.75;;;;;;;;;;5052375;28;20045;-73
2022/01/29 05:50:16;;;;;;;15.10;8.95;;;;;;;;;;5053850;28;20052;-73
2022/01/29 05:52:44;;;;;;;14.88;9.88;;;;;;;;;;5054044;28;20127;-73
2022/01/29 05:58:26;;;;;;;17.67;10.98;;;;;;;;;;5039147;28;20403;-73
2022/01/29 06:01:19;;;;;;;18.98;10.02;;;;;;;;;;5052959;28;20434;-73
2022/01/29 06:03:48;;;;;;;14.80;9.40;;;;;;;;;;5032727;28;20088;-73
2022/01/29 06:06:40;;;;;;;19.55;8.52;;;;;;;;;;5044712;28;20514;-73
2022/01/29 06:13:33;;;;;;;11.35;7.80;;;;;;;;;;5053466;28;20048;-75
2022/01/29 06:20:03;;;;;;;13.18;7.78;;;;;;;;;;5053732;28;20090;-73
2022/01/29 06:22:32;;;;;;;13.52;8.48;;;;;;;;;;5052956;28;20116;-73
2022/01/29 06:24:59;;;;;;;12.70;8.05;;;;;;;;;;5053175;28;20040;-73
2022/01/29 06:27:37;;;;;;;18.13;9.05;;;;;;;;;;5053580;28;20064;-73
2022/01/29 06:30:05;;;;;;;16.08;9.13;;;;;;;;;;5053426;28;20154;-73
2022/01/29 06:32:57;;;;;;;15.48;8.45;;;;;;;;;;5053155;28;20037;-73
2022/01/29 06:35:28;;;;;;;15.50;8.73;;;;;;;;;;5053317;28;20121;-73
2022/01/29 06:37:56;;;;;;;15.73;9.25;;;;;;;;;;5052263;28;20124;-73
2022/01/29 06:40:49;;;;;;;18.55;11.32;;;;;;;;;;5051796;28;20090;-73
2022/01/29 06:43:19;;;;;;;16.10;9.93;;;;;;;;;;5053021;28;20041;-73
2022/01/29 06:45:48;;;;;;;13.10;8.05;;;;;;;;;;5053391;28;20381;-73
2022/01/29 06:48:18;;;;;;;11.77;7.35;;;;;;;;;;5053179;28;20041;-73
2022/01/29 06:50:50;;;;;;;11.73;7.15;;;;;;;;;;5085195;28;20135;-73
2022/01/29 06:53:19;;;;;;;10.55;7.45;;;;;;;;;;5053135;28;20495;-73
2022/01/29 06:55:46;;;;;;;15.00;8.80;;;;;;;;;;5051308;28;20041;-73
2022/01/29 06:58:17;;;;;;;12.07;8.52;;;;;;;;;;5052804;28;20128;-73
2022/01/29 07:01:29;;;;;;;14.15;7.75;;;;;;;;;;5052807;28;20033;-73
2022/01/29 07:04:23;;;;;;;13.77;7.60;;;;;;;;;;5053066;28;20099;-73
2022/01/29 07:06:51;;;;;;;10.18;7.30;;;;;;;;;;5053113;28;20037;-73
2022/01/29 07:09:43;;;;;;;11.30;7.38;;;;;;;;;;5052926;28;20404;-72
2022/01/29 07:12:12;;;;;;;10.32;7.15;;;;;;;;;;5053805;28;20140;-72
2022/01/29 07:14:41;;;;;;;13.07;7.18;;;;;;;;;;5058585;28;20033;-72
2022/01/29 07:17:17;;;;;;;9.85;7.20;;;;;;;;;;5053012;28;20053;-75
2022/01/29 07:19:45;;;;;;;11.63;6.95;;;;;;;;;;5053310;28;20040;-74
2022/01/29 07:22:39;;;;;;;14.15;8.55;;;;;;;;;;5052564;28;20565;-72
2022/01/29 07:25:07;;;;;;;11.45;7.68;;;;;;;;;;5054565;28;20064;-79
2022/01/29 07:28:00;;;;;;;13.35;7.90;;;;;;;;;;5053365;28;20131;-75
2022/01/29 07:30:30;;;;;;;11.60;7.20;;;;;;;;;;5086454;28;20140;-79
2022/01/29 07:32:59;;;;;;;10.80;6.95;;;;;;;;;;5072656;28;20384;-86
2022/01/29 07:35:29;;;;;;;11.57;7.40;;;;;;;;;;5068054;28;20041;-79
2022/01/29 07:37:57;;;;;;;10.32;6.70;;;;;;;;;;5051472;28;20128;-80
2022/01/29 07:40:24;;;;;;;10.70;6.80;;;;;;;;;;5051147;28;20048;-78
2022/01/29 07:42:56;;;;;;;11.90;7.20;;;;;;;;;;5053130;28;20040;-78
2022/01/29 07:45:23;;;;;;;10.73;7.30;;;;;;;;;;5051619;28;20045;-78
2022/01/29 07:47:51;;;;;;;13.82;7.85;;;;;;;;;;5051379;28;20403;-77
2022/01/29 07:50:26;;;;;;;15.48;8.48;;;;;;;;;;5053229;28;20479;-77
2022/01/29 07:52:54;;;;;;;;;;;;;;;;;;5057274;28;20045;-77
2022/01/29 07:55:24;;;;;;;12.40;7.90;;;;;;;;;;5055042;28;20337;-77
2022/01/29 07:58:01;;;;;;;13.43;7.57;;;;;;;;;;5056172;28;20049;-77
2022/01/29 08:00:39;;;;;;;12.05;7.93;;;;;;;;;;5056243;28;20111;-75
2022/01/29 08:03:07;;;;;;;11.70;7.80;;;;;;;;;;5049452;28;20539;-76
2022/01/29 08:05:40;;;;;;;14.25;8.43;;;;;;;;;;5036254;28;20038;-80
2022/01/29 08:08:18;;;;;;;13.63;8.40;;;;;;;;;;5036172;28;20091;-70
2022/01/29 08:10:48;;;;;;;14.55;8.02;;;;;;;;;;5036130;28;20519;-70
2022/01/29 08:13:19;;;;;;;13.75;8.43;;;;;;;;;;5034485;28;20145;-70
2022/01/29 08:15:47;;;;;;;15.10;8.63;;;;;;;;;;5034682;28;20136;-70
2022/01/29 08:18:16;;;;;;;13.80;9.23;;;;;;;;;;5036240;28;20100;-70
2022/01/29 08:20:47;;;;;;;18.00;10.82;;;;;;;;;;5034512;28;20439;-70
2022/01/29 08:23:16;;;;;;;19.60;12.27;;;;;;;;;;5036000;28;20052;-70
2022/01/29 08:25:43;;;;;;;25.92;14.00;;;;;;;;;;5044747;28;20052;-70
2022/01/29 08:28:12;;;;;;;22.27;11.95;;;;;;;;;;5055110;28;20052;-70
2022/01/29 08:30:40;;;;;;;20.55;12.45;;;;;;;;;;5041511;28;20067;-70
2022/01/29 08:33:08;;;;;;;21.52;11.68;;;;;;;;;;5059288;28;20049;-70
2022/01/29 08:35:36;;;;;;;22.42;12.02;;;;;;;;;;5054978;28;20041;-70
2022/01/29 08:38:04;;;;;;;19.75;12.38;;;;;;;;;;5055062;28;20055;-70
2022/01/29 08:44:08;;;;;;;22.15;12.40;;;;;;;;;;5054017;28;20022;-70
2022/01/29 08:47:01;;;;;;;23.17;13.13;;;;;;;;;;5054478;28;20037;-70
2022/01/29 08:49:29;;;;;;;20.08;12.40;;;;;;;;;;5053293;28;20048;-70
2022/01/29 08:52:00;;;;;;;18.85;10.45;;;;;;;;;;5053253;28;20052;-70
2022/01/29 08:54:28;;;;;;;16.13;9.85;;;;;;;;;;5051029;28;20045;-70
2022/01/29 08:56:55;;;;;;;23.15;10.25;;;;;;;;;;5048106;28;20115;-70
2022/01/29 08:59:23;;;;;;;16.70;10.55;;;;;;;;;;5055238;28;20140;-70
2022/01/29 09:01:50;;;;;;;19.15;10.63;;;;;;;;;;5054840;28;20503;-68
2022/01/29 09:04:20;;;;;;;18.23;10.82;;;;;;;;;;5053949;28;20052;-69
2022/01/29 09:06:49;;;;;;;21.17;12.27;;;;;;;;;;5054543;28;20045;-68
2022/01/29 09:09:23;;;;;;;16.73;11.43;;;;;;;;;;5054726;28;20053;-68
2022/01/29 09:11:58;;;;;;;21.73;11.45;;;;;;;;;;5054457;28;20076;-68
2022/01/29 09:14:50;;;;;;;18.20;11.02;;;;;;;;;;5054034;28;20403;-68
2022/01/29 09:17:20;;;;;;;21.48;11.55;;;;;;;;;;5054080;28;20131;-68
2022/01/29 09:19:48;;;;;;;19.95;11.80;;;;;;;;;;5050828;28;20132;-68
2022/01/29 09:22:15;;;;;;;22.50;11.70;;;;;;;;;;5054135;28;20037;-68
2022/01/29 09:24:43;;;;;;;18.38;11.18;;;;;;;;;;5054089;28;20037;-68
2022/01/29 09:27:10;;;;;;;19.48;12.02;;;;;;;;;;5054174;28;20059;-69
2022/01/29 09:29:38;;;;;;;21.13;11.80;;;;;;;;;;5054108;28;20059;-68
2022/01/29 09:32:06;;;;;;;20.73;12.50;;;;;;;;;;5052764;28;20040;-68
2022/01/29 09:34:33;;;;;;;19.02;10.68;;;;;;;;;;5053934;28;20044;-68
2022/01/29 09:37:01;;;;;;;18.80;11.55;;;;;;;;;;5052615;28;20052;-68
2022/01/29 09:39:29;;;;;;;17.65;11.23;;;;;;;;;;5052677;28;20443;-68
2022/01/29 09:41:56;;;;;;;18.23;11.80;;;;;;;;;;5054062;28;20443;-68
2022/01/29 09:44:25;;;;;;;21.90;12.15;;;;;;;;;;5053910;28;20047;-69
2022/01/29 09:46:53;;;;;;;19.15;11.88;;;;;;;;;;5053735;28;20068;-68
2022/01/29 09:49:21;;;;;;;19.13;12.60;;;;;;;;;;5052168;28;20049;-67
2022/01/29 09:51:49;;;;;;;21.65;12.80;;;;;;;;;;5051526;28;20294;-67
2022/01/29 09:54:19;;;;;;;21.33;13.18;;;;;;;;;;5050590;28;20463;-68
2022/01/29 09:56:46;;;;;;;29.70;18.45;;;;;;;;;;5052106;28;20041;-68
2022/01/29 09:59:15;;;;;;;49.72;27.08;;;;;;;;;;5052692;28;20060;-68
2022/01/29 10:01:47;;;;;;;26.90;16.60;;;;;;;;;;5053693;28;20506;-68
2022/01/29 10:04:40;;;;;;;27.17;15.55;;;;;;;;;;5053602;28;20041;-68
2022/01/29 10:14:08;;;;;;;18.92;11.63;;;;;;;;;;5053936;28;20071;-68
2022/01/29 10:17:01;;;;;;;15.77;10.23;;;;;;;;;;5053914;28;20060;-68
2022/01/29 10:19:33;;;;;;;10.05;6.18;;;;;;;;;;5041612;28;20049;-68
2022/01/29 10:22:01;;;;;;;7.03;4.20;;;;;;;;;;5031948;28;20046;-68
2022/01/29 10:24:29;;;;;;;7.68;4.97;;;;;;;;;;5031843;28;20045;-69
2022/01/29 10:26:57;;;;;;;9.63;5.82;;;;;;;;;;5031732;28;20495;-68
2022/01/29 10:29:26;;;;;;;9.05;5.50;;;;;;;;;;5032978;28;20037;-68
2022/01/29 10:31:55;;;;;;;7.50;5.07;;;;;;;;;;5033328;28;20092;-68
2022/01/29 10:34:24;;;;;;;9.30;5.22;;;;;;;;;;5032999;28;20128;-68
2022/01/29 10:37:12;;;;;;;9.40;5.45;;;;;;;;;;5031879;28;20046;-68
2022/01/29 10:39:40;;;;;;;10.18;5.90;;;;;;;;;;5058467;28;20045;-68
2022/01/29 10:42:14;;;;;;;11.07;5.90;;;;;;;;;;5032794;28;20053;-68
2022/01/29 10:44:44;;;;;;;10.75;6.05;;;;;;;;;;5033011;28;20045;-68
2022/01/29 10:47:12;;;;;;;14.15;7.32;;;;;;;;;;5033034;28;20042;-68
2022/01/29 10:49:45;;;;;;;9.35;6.93;;;;;;;;;;5031511;28;20045;-68
2022/01/29 10:52:14;;;;;;;13.43;7.13;;;;;;;;;;5048297;28;20040;-68
2022/01/29 10:54:44;;;;;;;10.75;7.38;;;;;;;;;;5051382;28;20416;-68
2022/01/29 10:57:12;;;;;;;15.45;7.28;;;;;;;;;;5049151;28;20076;-68
2022/01/29 10:59:49;;;;;;;14.35;6.85;;;;;;;;;;5050084;28;20091;-68
2022/01/29 11:02:20;;;;;;;17.65;8.68;;;;;;;;;;5053299;28;20068;-68
2022/01/29 11:08:05;;;;;;;12.13;7.18;;;;;;;;;;5051153;28;20072;-69
2022/01/29 11:10:58;;;;;;;9.85;6.55;;;;;;;;;;5051321;28;20048;-68
2022/01/29 11:13:36;;;;;;;13.73;5.82;;;;;;;;;;5036500;28;20045;-68
2022/01/29 11:16:08;;;;;;;8.95;5.65;;;;;;;;;;5052671;28;20541;-68
2022/01/29 11:18:37;;;;;;;9.63;5.07;;;;;;;;;;5052921;28;20047;-68
2022/01/29 11:21:08;;;;;;;12.38;5.70;;;;;;;;;;5051464;28;20055;-68
2022/01/29 11:23:41;;;;;;;9.23;5.22;;;;;;;;;;5053167;28;20411;-68
2022/01/29 11:26:10;;;;;;;9.27;5.78;;;;;;;;;;5054971;28;20963;-68
2022/01/29 11:28:40;;;;;;;8.43;5.38;;;;;;;;;;5056636;28;20045;-67
2022/01/29 11:31:15;;;;;;;9.23;5.43;;;;;;;;;;5056000;28;20037;-67
2022/01/29 11:34:02;;;;;;;19.70;12.43;;;;;;;;;;5055107;28;20098;-69
2022/01/29 11:36:55;;;;;;;15.65;10.38;;;;;;;;;;5055590;28;20083;-68
2022/01/29 11:39:24;;;;;;;12.38;7.10;;;;;;;;;;5055391;28;20128;-68
2022/01/29 11:42:10;;;;;;;28.00;17.88;;;;;;;;;;5055869;28;20376;-68
2022/01/29 11:44:45;;;;;;;20.20;11.80;;;;;;;;;;5056703;28;20041;-68
2022/01/29 11:47:24;;;;;;;23.67;14.30;;;;;;;;;;5056469;28;20123;-68
2022/01/29 11:49:53;;;;;;;14.93;9.32;;;;;;;;;;5054641;28;20037;-68
2022/01/29 11:52:22;;;;;;;73.82;41.60;;;;;;;;;;5051009;28;20041;-68
2022/01/29 11:55:02;;;;;;;29.90;18.90;;;;;;;;;;5049637;28;20064;-68
2022/01/29 11:57:29;;;;;;;7.45;4.75;;;;;;;;;;5044624;28;20057;-68
2022/01/29 12:00:17;;;;;;;15.73;6.03;;;;;;;;;;5052585;28;20390;-68
2022/01/29 12:02:45;;;;;;;39.97;20.45;;;;;;;;;;5039121;28;20132;-68
2022/01/29 12:05:59;;;;;;;23.27;14.10;;;;;;;;;;5035239;28;20124;-68
2022/01/29 12:08:28;;;;;;;13.88;8.13;;;;;;;;;;5049486;28;20072;-68
2022/01/29 12:11:09;;;;;;;7.90;4.53;;;;;;;;;;5055910;28;20103;-68
2022/01/29 12:13:40;;;;;;;8.07;4.82;;;;;;;;;;5054589;28;20431;-68
2022/01/29 12:16:41;;;;;;;10.82;7.63;;;;;;;;;;5055701;28;20064;-68
2022/01/29 12:19:30;;;;;;;17.58;11.10;;;;;;;;;;5050985;28;20137;-68
2022/01/29 12:22:00;;;;;;;9.60;4.97;;;;;;;;;;5054231;28;20049;-68
2022/01/29 12:24:29;;;;;;;8.05;4.50;;;;;;;;;;5055787;28;20041;-68
2022/01/29 12:26:59;;;;;;;9.30;3.90;;;;;;;;;;5054345;28;20037;-68
2022/01/29 12:29:26;;;;;;;7.18;3.60;;;;;;;;;;5054931;28;20045;-68
2022/01/29 12:31:56;;;;;;;6.00;3.67;;;;;;;;;;5054018;28;20037;-68
2022/01/29 12:34:26;;;;;;;44.40;24.60;;;;;;;;;;5055756;28;20132;-68
2022/01/29 12:37:13;;;;;;;8.30;5.05;;;;;;;;;;5054863;28;20468;-68
2022/01/29 12:39:44;;;;;;;12.00;5.40;;;;;;;;;;5054090;28;20102;-68
2022/01/29 12:45:25;;;;;;;8.50;4.70;;;;;;;;;;5053958;28;20396;-69
2022/01/29 12:51:33;;;;;;;11.15;5.47;;;;;;;;;;5054745;28;20487;-68
2022/01/29 12:54:02;;;;;;;7.25;4.38;;;;;;;;;;5049238;28;20041;-68
2022/01/29 12:56:34;;;;;;;6.32;3.70;;;;;;;;;;5034847;28;20057;-68
2022/01/29 12:59:03;;;;;;;7.13;3.85;;;;;;;;;;5033202;28;20048;-68
2022/01/29 13:01:31;;;;;;;6.50;3.83;;;;;;;;;;5034410;28;20480;-68
2022/01/29 13:04:04;;;;;;;6.75;4.00;;;;;;;;;;5034848;28;20096;-68
2022/01/29 13:06:32;;;;;;;8.43;5.20;;;;;;;;;;5033249;28;20045;-68
2022/01/29 13:09:12;;;;;;;8.98;5.28;;;;;;;;;;5053127;28;20135;-68
2022/01/29 13:11:43;;;;;;;8.18;4.78;;;;;;;;;;5055059;28;20144;-68
2022/01/29 13:14:20;;;;;;;6.40;3.95;;;;;;;;;;5051211;28;20499;-68
2022/01/29 13:16:52;;;;;;;9.20;5.03;;;;;;;;;;5048730;28;20056;-68
2022/01/29 13:19:26;;;;;;;42.58;19.17;;;;;;;;;;5053033;28;20419;-68
2022/01/29 13:22:04;;;;;;;166.70;75.78;;;;;;;;;;5054297;28;20504;-68
2022/01/29 13:24:58;;;;;;;32.85;15.27;;;;;;;;;;5053166;28;20127;-68
2022/01/29 13:30:46;;;;;;;17.75;8.73;;;;;;;;;;5055063;28;20047;-68
2022/01/29 13:36:51;;;;;;;7.20;3.43;;;;;;;;;;5052343;28;20489;-68
2022/01/29 13:39:21;;;;;;;5.57;2.72;;;;;;;;;;5053474;28;20347;-68
2022/01/29 13:42:06;;;;;;;6.07;3.58;;;;;;;;;;5052322;28;20136;-69
2022/01/29 13:44:33;;;;;;;8.15;4.20;;;;;;;;;;5051349;28;20131;-68
2022/01/29 13:47:05;;;;;;;4.43;3.20;;;;;;;;;;5032341;28;20052;-68
2022/01/29 13:49:33;;;;;;;4.72;3.30;;;;;;;;;;5045863;28;20038;-69
2022/01/29 13:52:12;;;;;;;6.25;3.47;;;;;;;;;;5040228;28;20037;-70
2022/01/29 13:54:40;;;;;;;5.05;3.30;;;;;;;;;;5053557;28;20045;-67
2022/01/29 13:57:08;;;;;;;7.90;3.72;;;;;;;;;;5053573;28;20037;-68
2022/01/29 13:59:37;;;;;;;7.75;3.90;;;;;;;;;;5050105;28;20029;-70
2022/01/29 14:02:07;;;;;;;5.70;3.30;;;;;;;;;;5051435;28;20083;-67
2022/01/29 14:04:38;;;;;;;5.50;3.75;;;;;;;;;;5053854;28;20041;-67
2022/01/29 14:07:14;;;;;;;17.95;7.88;;;;;;;;;;5050350;28;20120;-68
2022/01/29 14:09:57;;;;;;;7.68;3.90;;;;;;;;;;5051266;28;20045;-68
2022/01/29 14:12:27;;;;;;;7.70;3.70;;;;;;;;;;5053632;28;20052;-68
2022/01/29 14:15:14;;;;;;;20.67;7.57;;;;;;;;;;5053872;28;20053;-68
2022/01/29 14:17:48;;;;;;;10.57;4.80;;;;;;;;;;5052759;28;20114;-68
2022/01/29 14:20:25;;;;;;;10.30;5.30;;;;;;;;;;5053205;28;20132;-68
2022/01/29 14:23:33;;;;;;;8.15;4.90;;;;;;;;;;5051187;28;20071;-68
2022/01/29 14:26:16;;;;;;;10.52;4.47;;;;;;;;;;5045411;28;20460;-68
2022/01/29 14:29:09;;;;;;;9.40;4.90;;;;;;;;;;5048390;28;20033;-68
2022/01/29 14:31:38;;;;;;;9.13;5.50;;;;;;;;;;5032253;28;20121;-68
2022/01/29 14:34:09;;;;;;;11.20;4.10;;;;;;;;;;5033392;28;20531;-68
2022/01/29 14:36:41;;;;;;;8.38;3.60;;;;;;;;;;5032474;28;20041;-68
2022/01/29 14:39:09;;;;;;;10.25;5.22;;;;;;;;;;5032975;28;20428;-68
2022/01/29 14:41:39;;;;;;;10.90;5.38;;;;;;;;;;5033332;28;20038;-68
2022/01/29 14:44:06;;;;;;;11.85;4.43;;;;;;;;;;5033339;28;20072;-69
2022/01/29 14:46:35;;;;;;;9.35;4.85;;;;;;;;;;5065576;28;20427;-68
2022/01/29 14:49:03;;;;;;;7.15;4.05;;;;;;;;;;5033170;28;20042;-68
2022/01/29 14:51:40;;;;;;;10.35;4.85;;;;;;;;;;5031766;28;20068;-68
2022/01/29 14:54:08;;;;;;;10.77;4.90;;;;;;;;;;5074324;28;20118;-68
2022/01/29 14:56:37;;;;;;;10.70;4.78;;;;;;;;;;5057118;28;20045;-68
2022/01/29 14:59:05;;;;;;;6.13;4.32;;;;;;;;;;5046536;28;20460;-68
2022/01/29 15:01:34;;;;;;;8.60;4.75;;;;;;;;;;5057756;28;20037;-68
2022/01/29 15:04:02;;;;;;;16.63;8.05;;;;;;;;;;5056475;28;20048;-68
2022/01/29 15:06:30;;;;;;;11.90;6.43;;;;;;;;;;5048946;28;20045;-68
2022/01/29 15:08:58;;;;;;;14.18;7.22;;;;;;;;;;5052025;28;20044;-68
2022/01/29 15:11:27;;;;;;;12.75;8.77;;;;;;;;;;5050549;28;20045;-68
2022/01/29 15:14:02;;;;;;;24.88;14.23;;;;;;;;;;5091532;28;20048;-68
2022/01/29 15:16:32;;;;;;;20.48;11.05;;;;;;;;;;5059810;28;20045;-68
2022/01/29 15:19:01;;;;;;;17.25;10.20;;;;;;;;;;5058081;28;20475;-68
2022/01/29 15:21:34;;;;;;;22.58;11.05;;;;;;;;;;5058006;28;20518;-67
2022/01/29 15:24:08;;;;;;;20.73;12.10;;;;;;;;;;5059797;28;20048;-68
2022/01/29 15:26:57;;;;;;;22.25;12.95;;;;;;;;;;5059070;28;20045;-68
2022/01/29 15:29:26;;;;;;;26.20;13.82;;;;;;;;;;5059415;28;20483;-68
2022/01/29 15:31:54;;;;;;;23.20;13.07;;;;;;;;;;5058257;28;20044;-68
2022/01/29 15:34:40;;;;;;;29.00;15.35;;;;;;;;;;5056668;28;20050;-67
2022/01/29 15:40:21;;;;;;;24.20;14.02;;;;;;;;;;5039158;28;20092;-68
2022/01/29 15:42:48;;;;;;;33.40;16.95;;;;;;;;;;5050227;28;20124;-66
2022/01/29 15:45:16;;;;;;;45.35;22.60;;;;;;;;;;5051623;28;20418;-67
2022/01/29 15:47:47;;;;;;;48.45;25.80;;;;;;;;;;5057968;28;20132;-67
2022/01/29 15:50:17;;;;;;;52.63;27.58;;;;;;;;;;5057815;28;20067;-68
2022/01/29 15:53:10;;;;;;;49.33;26.35;;;;;;;;;;5057615;28;20562;-68
2022/01/29 15:55:39;;;;;;;55.20;28.58;;;;;;;;;;5058008;28;20090;-68
2022/01/29 15:58:10;;;;;;;44.63;23.77;;;;;;;;;;5057508;28;20049;-68
2022/01/29 16:01:03;;;;;;;34.55;17.00;;;;;;;;;;5057744;28;20127;-68
2022/01/29 16:03:31;;;;;;;32.33;14.57;;;;;;;;;;5058510;28;20569;-67